• Join FlightAware (Why Join?)
  • Login
  • US Flag 
01:20AM EDT


 

Airport Tracker/Info


-or-


 

Live Flight TrackerFlight Track Log ✈ UAL6073 ✈ 03-Aug-2013 ✈ KRAP - KDEN

Flight Track Log - Related Links

Times and Time Zones

All times are in EDT time to prevent confusion due to time zone crossing. See the UAL6073 flight status page for this flight to view local times or setup timezone preferences in your user account.

Time Position Orientation Groundspeed Altitude Reporting Facility
EDT Latitude Longitude Course Direction KTS MPH feet Rate Location/Type
08:11AM 44.0222 -103.0422 188° South 197 227 3,900  Level Denver Center
08:12AM 43.9603 -103.0128 161° South 222 255 6,800 2,280 Climbing Denver Center
08:13AM 43.9331 -103.0183 188° South 245 282 7,600 2,520 Climbing Denver Center
08:14AM 43.7461 -103.0593 190° South  Level FlightAware Approximate
08:14AM 43.8456 -103.0431 192° South 282 325 10,600  Level Denver Center
08:15AM 43.6464 -103.0807 188° South  Level FlightAware Approximate
08:15AM 43.7722 -103.0586 189° South 281 323 13,700  Level Denver Center
08:16AM 43.5465 -103.1007 188° South  Level FlightAware Approximate
08:16AM 43.6956 -103.0761 189° South 284 327 15,400  Level Denver Center
08:17AM 43.6136 -103.0939 189° South 298 343 17,400 1,980 Climbing Denver Center
08:18AM 43.5142 -103.1169 190° South 314 361 19,500 1,740 Climbing Denver Center
08:19AM 43.4275 -103.1381 190° South 323 372 21,000 1,260 Climbing Denver Center
08:20AM 43.3317 -103.1594 189° South 355 409 22,100 1,140 Climbing Denver Center
08:21AM 43.2158 -103.1864 190° South 375 432 23,300 1,200 Climbing Denver Center
08:22AM 43.1111 -103.2103 189° South 394 453 24,600 1,440 Climbing Denver Center
08:23AM 43.0092 -103.2333 189° South 389 448 26,300 1,140 Climbing Denver Center
08:24AM 42.8892 -103.2606 189° South 389 448 27,000 300 Climbing Denver Center
08:25AM 42.7761 -103.2858 189° South 418 481 27,000  Level Denver Center
08:26AM 42.6583 -103.3125 189° South 439 505 27,000  Level Denver Center
08:27AM 42.5433 -103.3381 189° South 438 504 27,000  Level Denver Center
08:28AM 42.4106 -103.3672 189° South 433 498 27,000  Level Denver Center
08:29AM 42.2953 -103.3931 189° South 436 502 27,000  Level Denver Center
08:30AM 42.1853 -103.4178 189° South 422 486 27,000  Level Denver Center
08:31AM 42.0581 -103.4450 189° South 414 476 27,000  Level Denver Center
08:32AM 41.9486 -103.4689 189° South 416 479 27,000  Level Denver Center
08:33AM 41.8367 -103.4839 186° South 421 484 27,000  Level Denver Center
08:34AM 41.7042 -103.4869 181° South 426 490 27,000  Level Denver Center
08:35AM 41.5911 -103.4886 181° South 424 488 27,000  Level Denver Center
08:36AM 41.4778 -103.4936 182° South 425 489 27,000  Level Denver Center
08:37AM 41.3481 -103.4961 181° South 419 482 27,000  Level Denver Center
08:38AM 41.2361 -103.4989 181° South 420 483 27,000  Level Denver Center
08:39AM 41.1253 -103.5017 181° South 415 478 27,000  Level Denver Center
08:40AM 41.0150 -103.5039 181° South 414 476 27,000  Level Denver Center
08:41AM 40.8992 -103.5161 185° South 404 465 27,000  Level Denver Center
08:42AM 40.7961 -103.5731 203° Southwest 399 459 27,000 -600 Level Denver Center
08:43AM 40.6947 -103.6225 200° South 392 451 25,800 -1,380 Descending Denver Center
08:44AM 40.5958 -103.6817 204° Southwest 394 453 24,300 -1,380 Descending Denver Center
08:45AM 40.5339 -103.7608 224° Southwest 388 447 23,100 -1,920 Descending Denver Center
08:46AM 40.4392 -103.8911 226° Southwest 370 426 20,500 -2,220 Descending Denver Center
08:47AM 40.3744 -103.9811 227° Southwest 340 391 18,600 -1,860 Descending Denver Center
08:48AM 40.3569 -104.0914 258° West 314 361 16,800 -2,100 Descending Denver Center
08:49AM 40.3528 -104.2100 267° West 304 350 14,400 -1,680 Descending Denver Center
08:50AM 40.3153 -104.2961 240° Southwest 268 308 13,500 -900 Descending Denver Center
08:51AM 40.2794 -104.3806 241° Southwest 264 304 12,600 -1,140 Descending Denver Center
08:52AM 40.2425 -104.4653 240° Southwest 269 310 11,300 -1,620 Descending Denver Center
08:53AM 40.1992 -104.5475 235° Southwest 276 318 9,400 -1,500 Descending Denver Center
08:54AM 40.1364 -104.5992 212° Southwest 266 306 8,300 -1,020 Descending Denver Center
08:55AM 40.0739 -104.6414 207° Southwest 235 270 7,400 -600 Descending Denver Center
08:56AM 40.0217 -104.6772 208° Southwest 214 246 7,100 -480 Descending Denver Center
08:57AM 39.9708 -104.6847 186° South 181 208 6,500 -600 Descending Denver Center
08:58AM 39.9283 -104.6864 182° South 155 178 6,000 -600 Descending Denver Center
08:59AM 39.8919 -104.6869 181° South 144 166 5,300 -720 Descending Denver Center